sensor_id;sensor_type;location;lat;lon;timestamp;pressure;altitude;pressure_sealevel;temperature;humidity
64841;BME280;51307;52.162;7.560;2023-02-01T00:01:55;101228.03;;;4.55;58.43
64841;BME280;51307;52.162;7.560;2023-02-01T00:04:22;101235.84;;;4.70;58.14
64841;BME280;51307;52.162;7.560;2023-02-01T00:06:47;101235.47;;;4.50;58.30
64841;BME280;51307;52.162;7.560;2023-02-01T00:09:13;101228.84;;;4.69;57.47
64841;BME280;51307;52.162;7.560;2023-02-01T00:11:39;101221.41;;;4.74;57.38
64841;BME280;51307;52.162;7.560;2023-02-01T00:14:04;101231.31;;;4.59;57.51
64841;BME280;51307;52.162;7.560;2023-02-01T00:16:31;101231.13;;;4.86;57.00
64841;BME280;51307;52.162;7.560;2023-02-01T00:19:10;101227.00;;;4.82;56.79
64841;BME280;51307;52.162;7.560;2023-02-01T00:21:36;101210.88;;;5.10;56.24
64841;BME280;51307;52.162;7.560;2023-02-01T00:24:03;101213.03;;;5.04;56.29
64841;BME280;51307;52.162;7.560;2023-02-01T00:26:34;101205.63;;;4.72;57.03
64841;BME280;51307;52.162;7.560;2023-02-01T00:29:02;101201.28;;;4.71;57.18
64841;BME280;51307;52.162;7.560;2023-02-01T00:31:29;101194.44;;;5.04;56.61
64841;BME280;51307;52.162;7.560;2023-02-01T00:33:55;101195.69;;;4.63;57.38
64841;BME280;51307;52.162;7.560;2023-02-01T00:36:20;101190.03;;;4.92;56.78
64841;BME280;51307;52.162;7.560;2023-02-01T00:38:46;101184.13;;;4.88;56.97
64841;BME280;51307;52.162;7.560;2023-02-01T00:41:17;101189.66;;;4.61;57.69
64841;BME280;51307;52.162;7.560;2023-02-01T00:43:44;101186.16;;;4.85;57.52
64841;BME280;51307;52.162;7.560;2023-02-01T00:46:11;101182.31;;;4.89;57.24
64841;BME280;51307;52.162;7.560;2023-02-01T00:48:36;101194.56;;;4.54;58.25
64841;BME280;51307;52.162;7.560;2023-02-01T00:51:05;101165.56;;;4.88;57.54
64841;BME280;51307;52.162;7.560;2023-02-01T00:53:31;101166.69;;;4.97;57.54
64841;BME280;51307;52.162;7.560;2023-02-01T00:55:57;101170.19;;;4.98;57.53
64841;BME280;51307;52.162;7.560;2023-02-01T00:58:23;101178.03;;;4.75;58.08
64841;BME280;51307;52.162;7.560;2023-02-01T01:01:04;101176.06;;;4.90;57.85
64841;BME280;51307;52.162;7.560;2023-02-01T01:03:32;101162.81;;;4.90;57.71
64841;BME280;51307;52.162;7.560;2023-02-01T01:06:04;101177.25;;;4.86;57.92
64841;BME280;51307;52.162;7.560;2023-02-01T01:08:30;101167.94;;;5.04;57.64
64841;BME280;51307;52.162;7.560;2023-02-01T01:10:56;101177.94;;;4.77;58.38
64841;BME280;51307;52.162;7.560;2023-02-01T01:13:22;101168.66;;;4.82;57.83
64841;BME280;51307;52.162;7.560;2023-02-01T01:15:47;101183.97;;;4.79;58.21
64841;BME280;51307;52.162;7.560;2023-02-01T01:18:13;101186.41;;;4.82;57.95
64841;BME280;51307;52.162;7.560;2023-02-01T01:20:40;101227.88;;;4.83;57.75
64841;BME280;51307;52.162;7.560;2023-02-01T01:23:07;101190.22;;;4.78;57.96
64841;BME280;51307;52.162;7.560;2023-02-01T01:25:38;101198.69;;;4.83;58.25
64841;BME280;51307;52.162;7.560;2023-02-01T01:28:04;101192.81;;;4.91;58.08
64841;BME280;51307;52.162;7.560;2023-02-01T01:30:30;101190.59;;;5.09;57.70
64841;BME280;51307;52.162;7.560;2023-02-01T01:32:58;101183.25;;;5.12;57.40
64841;BME280;51307;52.162;7.560;2023-02-01T01:35:23;101183.75;;;4.82;58.19
64841;BME280;51307;52.162;7.560;2023-02-01T01:37:49;101183.84;;;5.04;57.90
64841;BME280;51307;52.162;7.560;2023-02-01T01:40:14;101176.44;;;4.97;58.29
64841;BME280;51307;52.162;7.560;2023-02-01T01:42:42;101174.25;;;4.91;58.30
64841;BME280;51307;52.162;7.560;2023-02-01T01:45:22;101177.81;;;4.78;58.76
64841;BME280;51307;52.162;7.560;2023-02-01T01:47:52;101179.09;;;4.97;58.36
64841;BME280;51307;52.162;7.560;2023-02-01T01:50:25;101139.97;;;5.12;58.22
64841;BME280;51307;52.162;7.560;2023-02-01T01:52:55;101153.78;;;4.93;58.41
64841;BME280;51307;52.162;7.560;2023-02-01T01:55:24;101149.09;;;4.96;58.37
64841;BME280;51307;52.162;7.560;2023-02-01T01:57:57;101154.03;;;5.01;58.16
64841;BME280;51307;52.162;7.560;2023-02-01T02:00:25;101145.72;;;5.05;58.10
64841;BME280;51307;52.162;7.560;2023-02-01T02:02:59;101141.66;;;5.13;57.97
64841;BME280;51307;52.162;7.560;2023-02-01T02:05:29;101150.59;;;5.12;57.83
64841;BME280;51307;52.162;7.560;2023-02-01T02:07:59;101146.34;;;5.09;58.02
64841;BME280;51307;52.162;7.560;2023-02-01T02:10:28;101143.50;;;4.88;58.49
64841;BME280;51307;52.162;7.560;2023-02-01T02:13:23;101129.53;;;4.86;58.47
64841;BME280;51307;52.162;7.560;2023-02-01T02:38:15;101104.72;;;4.98;57.73
64841;BME280;51307;52.162;7.560;2023-02-01T02:40:50;101104.53;;;5.13;57.85
64841;BME280;51307;52.162;7.560;2023-02-01T02:43:44;101088.47;;;5.03;58.03
64841;BME280;51307;52.162;7.560;2023-02-01T02:46:38;101092.41;;;4.86;58.18
64841;BME280;51307;52.162;7.560;2023-02-01T02:53:12;101094.97;;;4.63;58.74
64841;BME280;51307;52.162;7.560;2023-02-01T02:55:59;101088.94;;;4.97;58.31
64841;BME280;51307;52.162;7.560;2023-02-01T02:58:46;101090.59;;;4.86;58.13
64841;BME280;51307;52.162;7.560;2023-02-01T03:01:32;101093.09;;;4.77;58.43
64841;BME280;51307;52.162;7.560;2023-02-01T03:04:16;101098.41;;;4.77;58.39
64841;BME280;51307;52.162;7.560;2023-02-01T03:06:46;101108.25;;;4.75;58.28
64841;BME280;51307;52.162;7.560;2023-02-01T03:09:28;101072.63;;;4.79;58.33
64841;BME280;51307;52.162;7.560;2023-02-01T03:12:03;101082.13;;;4.81;58.36
64841;BME280;51307;52.162;7.560;2023-02-01T03:14:54;101055.75;;;4.80;58.15
64841;BME280;51307;52.162;7.560;2023-02-01T03:17:30;101072.34;;;4.70;58.54
64841;BME280;51307;52.162;7.560;2023-02-01T03:20:01;101055.03;;;4.89;58.38
64841;BME280;51307;52.162;7.560;2023-02-01T03:22:29;101062.47;;;4.72;58.60
64841;BME280;51307;52.162;7.560;2023-02-01T03:25:10;101037.72;;;4.96;57.98
64841;BME280;51307;52.162;7.560;2023-02-01T03:27:47;101042.19;;;5.07;57.80
64841;BME280;51307;52.162;7.560;2023-02-01T03:30:34;101057.09;;;4.85;58.23
64841;BME280;51307;52.162;7.560;2023-02-01T03:33:06;101046.84;;;4.81;58.24
64841;BME280;51307;52.162;7.560;2023-02-01T03:36:05;101046.97;;;4.91;57.93
64841;BME280;51307;52.162;7.560;2023-02-01T03:39:15;101048.97;;;5.11;57.53
64841;BME280;51307;52.162;7.560;2023-02-01T03:41:51;101061.53;;;4.74;58.34
64841;BME280;51307;52.162;7.560;2023-02-01T03:44:49;101045.44;;;4.99;57.85
64841;BME280;51307;52.162;7.560;2023-02-01T03:47:30;101051.94;;;5.06;57.75
64841;BME280;51307;52.162;7.560;2023-02-01T03:50:06;101051.00;;;5.08;57.61
64841;BME280;51307;52.162;7.560;2023-02-01T03:52:44;101037.56;;;4.86;58.20
64841;BME280;51307;52.162;7.560;2023-02-01T03:55:13;101058.31;;;5.04;58.02
64841;BME280;51307;52.162;7.560;2023-02-01T03:57:45;101057.38;;;5.05;57.95
64841;BME280;51307;52.162;7.560;2023-02-01T04:00:19;101047.13;;;5.00;57.99
64841;BME280;51307;52.162;7.560;2023-02-01T04:02:45;101051.69;;;4.87;58.38
64841;BME280;51307;52.162;7.560;2023-02-01T04:05:10;101036.72;;;4.86;58.84
64841;BME280;51307;52.162;7.560;2023-02-01T04:07:36;101042.94;;;5.20;58.08
64841;BME280;51307;52.162;7.560;2023-02-01T04:10:03;101051.56;;;5.00;58.47
64841;BME280;51307;52.162;7.560;2023-02-01T04:12:29;101041.06;;;4.87;58.94
64841;BME280;51307;52.162;7.560;2023-02-01T04:14:54;101031.94;;;5.02;58.60
64841;BME280;51307;52.162;7.560;2023-02-01T04:17:20;101028.56;;;5.12;58.43
64841;BME280;51307;52.162;7.560;2023-02-01T04:19:45;101035.28;;;4.93;58.80
64841;BME280;51307;52.162;7.560;2023-02-01T04:22:11;101017.22;;;4.87;59.16
64841;BME280;51307;52.162;7.560;2023-02-01T04:24:37;101031.31;;;4.99;59.10
64841;BME280;51307;52.162;7.560;2023-02-01T04:27:03;101032.63;;;4.82;59.86
64841;BME280;51307;52.162;7.560;2023-02-01T04:29:28;101018.88;;;4.77;60.28
64841;BME280;51307;52.162;7.560;2023-02-01T04:31:54;101025.91;;;5.00;59.73
64841;BME280;51307;52.162;7.560;2023-02-01T04:34:19;101028.81;;;5.09;59.82
64841;BME280;51307;52.162;7.560;2023-02-01T04:36:45;101014.94;;;4.94;60.46
64841;BME280;51307;52.162;7.560;2023-02-01T04:39:11;101012.94;;;4.73;61.05
64841;BME280;51307;52.162;7.560;2023-02-01T04:41:36;101019.66;;;5.13;60.00
64841;BME280;51307;52.162;7.560;2023-02-01T04:44:02;101014.56;;;4.87;60.31
64841;BME280;51307;52.162;7.560;2023-02-01T04:46:27;101016.72;;;4.82;60.44
64841;BME280;51307;52.162;7.560;2023-02-01T04:48:53;101023.59;;;4.96;60.37
64841;BME280;51307;52.162;7.560;2023-02-01T04:51:18;101017.59;;;5.05;60.38
64841;BME280;51307;52.162;7.560;2023-02-01T04:53:44;101022.53;;;4.98;60.40
64841;BME280;51307;52.162;7.560;2023-02-01T04:56:10;101022.03;;;4.82;60.74
64841;BME280;51307;52.162;7.560;2023-02-01T04:58:35;101014.34;;;5.13;59.97
64841;BME280;51307;52.162;7.560;2023-02-01T05:01:05;101012.91;;;5.20;60.00
64841;BME280;51307;52.162;7.560;2023-02-01T05:03:33;101023.72;;;5.05;60.18
64841;BME280;51307;52.162;7.560;2023-02-01T05:05:59;101014.81;;;4.95;60.46
64841;BME280;51307;52.162;7.560;2023-02-01T05:08:25;101015.84;;;4.81;60.81
64841;BME280;51307;52.162;7.560;2023-02-01T05:10:52;100991.53;;;4.99;60.49
64841;BME280;51307;52.162;7.560;2023-02-01T05:13:18;100998.88;;;4.84;60.62
64841;BME280;51307;52.162;7.560;2023-02-01T05:16:02;100996.00;;;4.87;60.45
64841;BME280;51307;52.162;7.560;2023-02-01T05:18:28;101020.81;;;4.97;60.39
64841;BME280;51307;52.162;7.560;2023-02-01T05:20:54;101002.34;;;4.73;60.83
64841;BME280;51307;52.162;7.560;2023-02-01T05:23:19;100995.00;;;4.65;61.75
64841;BME280;51307;52.162;7.560;2023-02-01T05:25:45;101004.41;;;4.81;61.60
64841;BME280;51307;52.162;7.560;2023-02-01T05:28:10;100993.72;;;4.94;60.96
64841;BME280;51307;52.162;7.560;2023-02-01T05:30:36;101002.44;;;4.60;61.41
64841;BME280;51307;52.162;7.560;2023-02-01T05:33:02;100990.91;;;4.72;61.27
64841;BME280;51307;52.162;7.560;2023-02-01T05:35:28;100985.41;;;4.98;60.86
64841;BME280;51307;52.162;7.560;2023-02-01T05:37:53;100981.50;;;4.80;61.20
64841;BME280;51307;52.162;7.560;2023-02-01T05:40:19;100976.72;;;4.96;60.87
64841;BME280;51307;52.162;7.560;2023-02-01T05:42:44;100990.78;;;4.63;61.76
64841;BME280;51307;52.162;7.560;2023-02-01T05:45:10;100996.44;;;4.69;61.36
64841;BME280;51307;52.162;7.560;2023-02-01T05:47:35;100990.16;;;4.70;61.71
64841;BME280;51307;52.162;7.560;2023-02-01T05:50:02;100966.22;;;4.72;61.47
64841;BME280;51307;52.162;7.560;2023-02-01T05:52:27;100974.28;;;4.82;60.85
64841;BME280;51307;52.162;7.560;2023-02-01T05:54:53;100973.22;;;4.84;60.95
64841;BME280;51307;52.162;7.560;2023-02-01T05:57:18;100972.59;;;4.81;60.78
64841;BME280;51307;52.162;7.560;2023-02-01T05:59:44;100973.94;;;4.86;60.73
64841;BME280;51307;52.162;7.560;2023-02-01T06:02:14;100984.03;;;4.81;60.71
64841;BME280;51307;52.162;7.560;2023-02-01T06:04:40;100977.69;;;5.06;60.30
64841;BME280;51307;52.162;7.560;2023-02-01T06:07:07;100986.50;;;5.18;59.88
64841;BME280;51307;52.162;7.560;2023-02-01T06:09:34;100981.78;;;4.99;60.28
64841;BME280;51307;52.162;7.560;2023-02-01T06:11:59;101004.53;;;4.91;60.58
64841;BME280;51307;52.162;7.560;2023-02-01T06:14:26;100998.03;;;4.83;60.62
64841;BME280;51307;52.162;7.560;2023-02-01T06:16:54;101009.63;;;5.05;60.15
64841;BME280;51307;52.162;7.560;2023-02-01T06:19:20;100998.66;;;4.98;60.03
64841;BME280;51307;52.162;7.560;2023-02-01T06:21:45;101007.69;;;4.96;60.25
64841;BME280;51307;52.162;7.560;2023-02-01T06:24:12;101010.59;;;5.04;60.04
64841;BME280;51307;52.162;7.560;2023-02-01T06:26:37;101010.75;;;5.14;59.64
64841;BME280;51307;52.162;7.560;2023-02-01T06:29:06;101019.28;;;5.40;58.92
64841;BME280;51307;52.162;7.560;2023-02-01T06:31:32;101027.38;;;5.27;59.23
64841;BME280;51307;52.162;7.560;2023-02-01T06:33:57;101023.25;;;5.46;58.72
64841;BME280;51307;52.162;7.560;2023-02-01T06:36:23;101012.28;;;5.16;59.40
64841;BME280;51307;52.162;7.560;2023-02-01T06:38:48;101029.78;;;5.30;58.88
64841;BME280;51307;52.162;7.560;2023-02-01T06:41:14;101039.19;;;5.23;59.19
64841;BME280;51307;52.162;7.560;2023-02-01T06:43:40;101029.66;;;5.32;58.98
64841;BME280;51307;52.162;7.560;2023-02-01T06:46:09;101041.00;;;5.22;59.24
64841;BME280;51307;52.162;7.560;2023-02-01T06:48:35;101035.56;;;5.47;58.64
64841;BME280;51307;52.162;7.560;2023-02-01T06:51:01;101032.44;;;5.30;58.72
64841;BME280;51307;52.162;7.560;2023-02-01T06:53:26;101031.72;;;5.39;58.43
64841;BME280;51307;52.162;7.560;2023-02-01T06:56:00;101029.53;;;5.56;58.17
64841;BME280;51307;52.162;7.560;2023-02-01T06:58:31;101028.09;;;5.18;59.25
64841;BME280;51307;52.162;7.560;2023-02-01T07:00:58;101034.38;;;5.17;59.35
64841;BME280;51307;52.162;7.560;2023-02-01T07:03:23;101050.16;;;5.18;59.14
64841;BME280;51307;52.162;7.560;2023-02-01T07:05:49;101047.16;;;5.46;58.78
64841;BME280;51307;52.162;7.560;2023-02-01T07:08:14;101053.66;;;5.30;58.79
64841;BME280;51307;52.162;7.560;2023-02-01T07:10:40;101051.59;;;5.34;58.88
64841;BME280;51307;52.162;7.560;2023-02-01T07:13:06;101042.09;;;5.43;58.80
64841;BME280;51307;52.162;7.560;2023-02-01T07:15:31;101050.06;;;5.31;59.12
64841;BME280;51307;52.162;7.560;2023-02-01T07:17:57;101051.00;;;5.42;58.92
64841;BME280;51307;52.162;7.560;2023-02-01T07:20:23;101067.06;;;5.40;58.89
64841;BME280;51307;52.162;7.560;2023-02-01T07:22:48;101056.91;;;5.56;58.70
64841;BME280;51307;52.162;7.560;2023-02-01T07:25:19;101061.59;;;5.19;59.43
64841;BME280;51307;52.162;7.560;2023-02-01T07:27:44;101068.09;;;5.15;59.98
64841;BME280;51307;52.162;7.560;2023-02-01T07:30:11;101070.53;;;5.40;58.95
64841;BME280;51307;52.162;7.560;2023-02-01T07:32:37;101077.78;;;5.38;59.32
64841;BME280;51307;52.162;7.560;2023-02-01T07:35:03;101078.63;;;5.39;59.11
64841;BME280;51307;52.162;7.560;2023-02-01T07:37:28;101083.44;;;5.22;59.59
64841;BME280;51307;52.162;7.560;2023-02-01T07:39:55;101074.16;;;5.28;59.32
64841;BME280;51307;52.162;7.560;2023-02-01T07:42:20;101100.19;;;5.23;59.70
64841;BME280;51307;52.162;7.560;2023-02-01T07:44:45;101075.72;;;5.19;59.99
64841;BME280;51307;52.162;7.560;2023-02-01T07:47:11;101063.56;;;5.39;59.81
64841;BME280;51307;52.162;7.560;2023-02-01T07:49:36;101078.88;;;5.36;60.29
64841;BME280;51307;52.162;7.560;2023-02-01T07:52:02;101083.34;;;5.35;60.04
64841;BME280;51307;52.162;7.560;2023-02-01T07:54:27;101076.84;;;5.62;59.20
64841;BME280;51307;52.162;7.560;2023-02-01T07:56:53;101075.38;;;5.47;59.71
64841;BME280;51307;52.162;7.560;2023-02-01T07:59:18;101081.16;;;5.40;60.26
64841;BME280;51307;52.162;7.560;2023-02-01T08:01:44;101089.81;;;5.20;60.92
64841;BME280;51307;52.162;7.560;2023-02-01T08:04:12;101089.25;;;5.62;60.19
64841;BME280;51307;52.162;7.560;2023-02-01T08:06:38;101096.03;;;5.54;60.07
64841;BME280;51307;52.162;7.560;2023-02-01T08:09:06;101087.75;;;5.12;60.88
64841;BME280;51307;52.162;7.560;2023-02-01T08:11:33;101082.03;;;5.41;59.73
64841;BME280;51307;52.162;7.560;2023-02-01T08:13:59;101082.50;;;5.57;59.36
64841;BME280;51307;52.162;7.560;2023-02-01T08:16:25;101083.19;;;5.26;59.75
64841;BME280;51307;52.162;7.560;2023-02-01T08:18:52;101095.41;;;5.39;59.48
64841;BME280;51307;52.162;7.560;2023-02-01T08:21:22;101086.72;;;5.37;59.26
64841;BME280;51307;52.162;7.560;2023-02-01T08:23:48;101083.94;;;5.62;59.01
64841;BME280;51307;52.162;7.560;2023-02-01T08:26:23;101086.25;;;5.55;58.59
64841;BME280;51307;52.162;7.560;2023-02-01T08:28:55;101081.66;;;5.57;58.39
64841;BME280;51307;52.162;7.560;2023-02-01T08:31:23;101092.38;;;5.89;57.90
64841;BME280;51307;52.162;7.560;2023-02-01T08:33:51;101094.69;;;5.60;58.36
64841;BME280;51307;52.162;7.560;2023-02-01T08:36:18;101101.69;;;5.50;58.45
64841;BME280;51307;52.162;7.560;2023-02-01T08:38:44;101091.06;;;5.50;58.53
64841;BME280;51307;52.162;7.560;2023-02-01T08:41:12;101092.78;;;5.62;58.20
64841;BME280;51307;52.162;7.560;2023-02-01T08:43:38;101096.16;;;5.76;57.84
64841;BME280;51307;52.162;7.560;2023-02-01T08:46:04;101101.22;;;5.56;58.03
64841;BME280;51307;52.162;7.560;2023-02-01T08:48:31;101100.25;;;5.57;57.78
64841;BME280;51307;52.162;7.560;2023-02-01T08:50:57;101097.34;;;5.83;57.41
64841;BME280;51307;52.162;7.560;2023-02-01T08:53:23;101091.56;;;5.78;57.57
64841;BME280;51307;52.162;7.560;2023-02-01T08:55:49;101095.28;;;5.75;57.65
64841;BME280;51307;52.162;7.560;2023-02-01T08:58:15;101091.66;;;5.87;57.47
64841;BME280;51307;52.162;7.560;2023-02-01T09:00:43;101092.41;;;5.67;57.76
64841;BME280;51307;52.162;7.560;2023-02-01T09:03:11;101093.09;;;5.92;57.40
64841;BME280;51307;52.162;7.560;2023-02-01T09:05:38;101088.88;;;6.00;57.27
64841;BME280;51307;52.162;7.560;2023-02-01T09:08:04;101101.44;;;5.87;57.43
64841;BME280;51307;52.162;7.560;2023-02-01T09:10:30;101085.53;;;5.76;57.63
64841;BME280;51307;52.162;7.560;2023-02-01T09:12:55;101086.47;;;5.63;58.10
64841;BME280;51307;52.162;7.560;2023-02-01T09:15:21;101096.25;;;5.63;58.11
64841;BME280;51307;52.162;7.560;2023-02-01T09:17:46;101106.88;;;5.74;57.68
64841;BME280;51307;52.162;7.560;2023-02-01T09:20:12;101081.66;;;5.80;57.57
64841;BME280;51307;52.162;7.560;2023-02-01T09:22:38;101077.19;;;5.57;58.21
64841;BME280;51307;52.162;7.560;2023-02-01T09:25:04;101063.53;;;5.96;57.44
64841;BME280;51307;52.162;7.560;2023-02-01T09:27:30;101057.75;;;5.68;57.97
64841;BME280;51307;52.162;7.560;2023-02-01T09:29:55;101055.44;;;5.98;57.18
64841;BME280;51307;52.162;7.560;2023-02-01T09:32:22;101054.72;;;5.84;57.66
64841;BME280;51307;52.162;7.560;2023-02-01T09:34:49;101046.41;;;5.78;57.81
64841;BME280;51307;52.162;7.560;2023-02-01T09:37:15;101042.63;;;5.92;57.26
64841;BME280;51307;52.162;7.560;2023-02-01T09:39:41;101022.69;;;6.09;56.92
64841;BME280;51307;52.162;7.560;2023-02-01T09:47:29;101045.28;;;5.92;57.49
64841;BME280;51307;52.162;7.560;2023-02-01T09:50:08;101041.16;;;6.10;57.18
64841;BME280;51307;52.162;7.560;2023-02-01T09:52:45;101032.34;;;5.98;57.22
64841;BME280;51307;52.162;7.560;2023-02-01T09:55:20;101036.22;;;6.05;57.43
64841;BME280;51307;52.162;7.560;2023-02-01T09:58:01;101041.19;;;5.99;57.46
64841;BME280;51307;52.162;7.560;2023-02-01T10:00:37;101052.88;;;6.07;57.28
64841;BME280;51307;52.162;7.560;2023-02-01T10:03:04;101053.38;;;5.90;57.67
64841;BME280;51307;52.162;7.560;2023-02-01T10:08:23;101043.19;;;6.18;56.96
64841;BME280;51307;52.162;7.560;2023-02-01T10:11:04;101037.34;;;6.24;56.94
64841;BME280;51307;52.162;7.560;2023-02-01T10:14:07;101050.72;;;6.01;57.59
64841;BME280;51307;52.162;7.560;2023-02-01T10:16:43;101036.19;;;6.17;57.38
64841;BME280;51307;52.162;7.560;2023-02-01T10:22:15;101040.13;;;6.22;57.39
64841;BME280;51307;52.162;7.560;2023-02-01T10:27:33;101054.13;;;5.92;57.71
64841;BME280;51307;52.162;7.560;2023-02-01T10:30:18;101039.78;;;6.16;57.36
64841;BME280;51307;52.162;7.560;2023-02-01T10:32:44;101035.63;;;6.02;57.54
64841;BME280;51307;52.162;7.560;2023-02-01T10:35:16;101026.97;;;6.21;57.35
64841;BME280;51307;52.162;7.560;2023-02-01T10:37:44;101041.00;;;6.23;56.85
64841;BME280;51307;52.162;7.560;2023-02-01T10:42:41;101009.31;;;6.31;57.10
64841;BME280;51307;52.162;7.560;2023-02-01T10:45:15;100996.88;;;6.32;57.23
64841;BME280;51307;52.162;7.560;2023-02-01T10:47:42;100988.75;;;6.33;57.22
64841;BME280;51307;52.162;7.560;2023-02-01T10:58:19;101009.06;;;6.02;57.68
64841;BME280;51307;52.162;7.560;2023-02-01T11:00:54;101015.72;;;5.96;58.00
64841;BME280;51307;52.162;7.560;2023-02-01T11:03:39;100995.78;;;6.34;57.75
64841;BME280;51307;52.162;7.560;2023-02-01T11:06:24;100992.19;;;6.24;58.35
64841;BME280;51307;52.162;7.560;2023-02-01T11:09:39;100980.31;;;6.07;59.30
64841;BME280;51307;52.162;7.560;2023-02-01T11:14:18;100994.59;;;5.95;60.65
64841;BME280;51307;52.162;7.560;2023-02-01T11:19:44;100987.28;;;5.76;62.66
64841;BME280;51307;52.162;7.560;2023-02-01T11:22:12;100989.47;;;5.59;63.87
64841;BME280;51307;52.162;7.560;2023-02-01T11:24:40;101006.88;;;5.52;63.90
64841;BME280;51307;52.162;7.560;2023-02-01T11:27:27;100986.75;;;5.38;64.92
64841;BME280;51307;52.162;7.560;2023-02-01T11:29:59;100977.06;;;5.26;65.36
64841;BME280;51307;52.162;7.560;2023-02-01T11:32:27;100972.25;;;5.42;65.31
64841;BME280;51307;52.162;7.560;2023-02-01T11:35:03;100967.06;;;5.29;65.10
64841;BME280;51307;52.162;7.560;2023-02-01T11:37:36;100980.34;;;5.29;65.15
64841;BME280;51307;52.162;7.560;2023-02-01T11:43:11;100997.19;;;4.83;66.07
64841;BME280;51307;52.162;7.560;2023-02-01T11:45:38;100991.81;;;5.07;66.10
64841;BME280;51307;52.162;7.560;2023-02-01T11:48:09;100975.28;;;5.26;66.36
64841;BME280;51307;52.162;7.560;2023-02-01T11:51:25;100955.75;;;5.16;65.88
64841;BME280;51307;52.162;7.560;2023-02-01T11:56:36;100960.81;;;4.96;67.13
64841;BME280;51307;52.162;7.560;2023-02-01T12:05:04;100948.03;;;5.24;67.09
64841;BME280;51307;52.162;7.560;2023-02-01T12:21:54;100932.97;;;5.02;67.97
64841;BME280;51307;52.162;7.560;2023-02-01T12:43:59;100904.88;;;5.22;67.64
64841;BME280;51307;52.162;7.560;2023-02-01T12:46:37;100897.72;;;5.34;67.74
64841;BME280;51307;52.162;7.560;2023-02-01T12:52:14;100886.28;;;5.11;68.32
64841;BME280;51307;52.162;7.560;2023-02-01T12:54:57;100886.25;;;5.45;67.60
64841;BME280;51307;52.162;7.560;2023-02-01T12:57:36;100893.38;;;5.33;68.19
64841;BME280;51307;52.162;7.560;2023-02-01T13:00:32;100887.66;;;5.60;67.32
64841;BME280;51307;52.162;7.560;2023-02-01T13:06:00;100858.59;;;5.47;67.26
64841;BME280;51307;52.162;7.560;2023-02-01T13:08:48;100870.06;;;5.48;66.96
64841;BME280;51307;52.162;7.560;2023-02-01T13:11:31;100876.34;;;5.47;66.64
64841;BME280;51307;52.162;7.560;2023-02-01T13:16:52;100877.66;;;5.52;66.59
64841;BME280;51307;52.162;7.560;2023-02-01T13:19:42;100865.72;;;5.47;66.76
64841;BME280;51307;52.162;7.560;2023-02-01T13:22:22;100887.22;;;5.44;67.52
64841;BME280;51307;52.162;7.560;2023-02-01T13:25:04;100866.19;;;5.84;66.64
64841;BME280;51307;52.162;7.560;2023-02-01T13:27:37;100887.56;;;5.50;67.14
64841;BME280;51307;52.162;7.560;2023-02-01T13:30:05;100876.09;;;5.50;67.67
64841;BME280;51307;52.162;7.560;2023-02-01T13:41:04;100869.94;;;5.49;67.14
64841;BME280;51307;52.162;7.560;2023-02-01T13:43:39;100859.03;;;5.64;66.43
64841;BME280;51307;52.162;7.560;2023-02-01T13:46:10;100871.16;;;5.45;67.28
64841;BME280;51307;52.162;7.560;2023-02-01T13:48:55;100889.19;;;5.30;67.67
64841;BME280;51307;52.162;7.560;2023-02-01T13:51:49;100876.75;;;5.63;67.16
64841;BME280;51307;52.162;7.560;2023-02-01T13:54:38;100875.19;;;5.61;67.12
64841;BME280;51307;52.162;7.560;2023-02-01T13:57:35;100890.72;;;5.77;66.91
64841;BME280;51307;52.162;7.560;2023-02-01T14:00:51;100909.97;;;5.57;67.84
64841;BME280;51307;52.162;7.560;2023-02-01T14:24:40;61884.97;;;-149.03;100.00
64841;BME280;51307;52.162;7.560;2023-02-01T14:26:54;61884.97;;;-149.03;100.00
64841;BME280;51307;52.162;7.560;2023-02-01T14:29:40;100945.06;;;3.88;74.13
64841;BME280;51307;52.162;7.560;2023-02-01T14:32:11;100949.41;;;3.89;73.36
64841;BME280;51307;52.162;7.560;2023-02-01T14:42:22;100962.00;;;4.69;71.86
64841;BME280;51307;52.162;7.560;2023-02-01T14:44:51;100960.19;;;4.81;71.19
64841;BME280;51307;52.162;7.560;2023-02-01T14:52:23;100953.94;;;5.28;70.41
64841;BME280;51307;52.162;7.560;2023-02-01T14:55:01;100971.03;;;5.57;69.06
64841;BME280;51307;52.162;7.560;2023-02-01T14:57:30;100995.16;;;5.09;71.29
64841;BME280;51307;52.162;7.560;2023-02-01T15:00:07;100985.75;;;5.39;68.89
64841;BME280;51307;52.162;7.560;2023-02-01T15:02:36;100985.63;;;5.40;69.63
64841;BME280;51307;52.162;7.560;2023-02-01T15:05:02;100981.44;;;5.15;69.73
64841;BME280;51307;52.162;7.560;2023-02-01T15:07:40;100972.88;;;5.34;69.78
64841;BME280;51307;52.162;7.560;2023-02-01T15:10:06;100985.06;;;5.37;69.30
64841;BME280;51307;52.162;7.560;2023-02-01T15:12:31;100995.41;;;5.51;68.43
64841;BME280;51307;52.162;7.560;2023-02-01T15:17:39;100981.78;;;5.45;69.38
64841;BME280;51307;52.162;7.560;2023-02-01T15:20:21;100994.06;;;5.23;68.53
64841;BME280;51307;52.162;7.560;2023-02-01T15:22:58;100992.63;;;5.42;67.62
64841;BME280;51307;52.162;7.560;2023-02-01T15:25:27;101015.91;;;5.49;66.95
64841;BME280;51307;52.162;7.560;2023-02-01T15:27:54;100990.09;;;5.63;67.07
64841;BME280;51307;52.162;7.560;2023-02-01T15:30:23;101001.53;;;5.40;67.07
64841;BME280;51307;52.162;7.560;2023-02-01T15:32:49;100988.66;;;5.36;68.14
64841;BME280;51307;52.162;7.560;2023-02-01T15:35:51;100985.41;;;5.32;67.93
64841;BME280;51307;52.162;7.560;2023-02-01T15:41:59;100991.91;;;5.62;66.46
64841;BME280;51307;52.162;7.560;2023-02-01T15:46:39;100990.72;;;5.44;67.20
64841;BME280;51307;52.162;7.560;2023-02-01T15:49:24;101001.78;;;5.60;67.00
64841;BME280;51307;52.162;7.560;2023-02-01T15:51:51;100991.63;;;5.77;66.58
64841;BME280;51307;52.162;7.560;2023-02-01T15:54:26;101001.56;;;5.52;67.10
64841;BME280;51307;52.162;7.560;2023-02-01T15:56:54;100993.41;;;5.87;66.69
64841;BME280;51307;52.162;7.560;2023-02-01T15:59:32;100997.50;;;5.92;66.65
64841;BME280;51307;52.162;7.560;2023-02-01T16:02:01;101004.19;;;5.63;66.65